sensor_id;sensor_type;location;lat;lon;timestamp;pressure;altitude;pressure_sealevel;temperature;humidity
75013;BME280;63567;49.956;20.130;2023-05-02T00:02:00;97054.91;;;11.95;40.52
75013;BME280;63567;49.956;20.130;2023-05-02T00:04:25;97057.13;;;11.91;40.03
75013;BME280;63567;49.956;20.130;2023-05-02T00:06:54;97049.16;;;11.84;40.84
75013;BME280;63567;49.956;20.130;2023-05-02T00:09:20;97056.06;;;11.85;40.41
75013;BME280;63567;49.956;20.130;2023-05-02T00:11:45;97060.72;;;11.83;40.51
75013;BME280;63567;49.956;20.130;2023-05-02T00:14:11;97050.56;;;11.80;40.20
75013;BME280;63567;49.956;20.130;2023-05-02T00:16:36;97059.69;;;11.78;40.29
75013;BME280;63567;49.956;20.130;2023-05-02T00:19:01;97053.56;;;11.77;40.49
75013;BME280;63567;49.956;20.130;2023-05-02T00:21:27;97054.78;;;11.75;40.28
75013;BME280;63567;49.956;20.130;2023-05-02T00:23:57;97055.19;;;11.71;40.58
75013;BME280;63567;49.956;20.130;2023-05-02T00:26:22;97064.09;;;11.70;40.45
75013;BME280;63567;49.956;20.130;2023-05-02T00:28:48;97056.56;;;11.67;40.36
75013;BME280;63567;49.956;20.130;2023-05-02T00:31:14;97043.97;;;11.63;40.44
75013;BME280;63567;49.956;20.130;2023-05-02T00:33:39;97051.66;;;11.64;40.36
75013;BME280;63567;49.956;20.130;2023-05-02T00:36:13;97055.50;;;11.62;40.33
75013;BME280;63567;49.956;20.130;2023-05-02T00:38:38;97056.72;;;11.59;40.18
75013;BME280;63567;49.956;20.130;2023-05-02T00:41:03;97054.28;;;11.58;40.78
75013;BME280;63567;49.956;20.130;2023-05-02T00:43:29;97057.94;;;11.57;40.28
75013;BME280;63567;49.956;20.130;2023-05-02T00:45:55;97062.78;;;11.53;40.80
75013;BME280;63567;49.956;20.130;2023-05-02T00:48:20;97054.06;;;11.52;40.30
75013;BME280;63567;49.956;20.130;2023-05-02T00:50:47;97055.44;;;11.48;40.75
75013;BME280;63567;49.956;20.130;2023-05-02T00:53:12;97051.78;;;11.43;40.64
75013;BME280;63567;49.956;20.130;2023-05-02T00:55:38;97062.72;;;11.46;40.28
75013;BME280;63567;49.956;20.130;2023-05-02T00:58:10;97062.31;;;11.43;40.28
75013;BME280;63567;49.956;20.130;2023-05-02T01:14:41;97055.31;;;11.28;40.46
75013;BME280;63567;49.956;20.130;2023-05-02T01:17:13;97056.13;;;11.29;40.06
75013;BME280;63567;49.956;20.130;2023-05-02T01:19:44;97070.09;;;11.29;40.19
75013;BME280;63567;49.956;20.130;2023-05-02T01:22:12;97061.03;;;11.32;40.73
75013;BME280;63567;49.956;20.130;2023-05-02T01:24:58;97070.75;;;11.31;40.53
75013;BME280;63567;49.956;20.130;2023-05-02T01:27:35;97058.56;;;11.30;40.47
75013;BME280;63567;49.956;20.130;2023-05-02T01:30:05;97065.22;;;11.26;40.24
75013;BME280;63567;49.956;20.130;2023-05-02T01:32:33;97054.69;;;11.26;39.89
75013;BME280;63567;49.956;20.130;2023-05-02T01:35:00;97062.41;;;11.28;39.87
75013;BME280;63567;49.956;20.130;2023-05-02T01:37:29;97050.03;;;11.28;39.88
75013;BME280;63567;49.956;20.130;2023-05-02T01:39:55;97045.97;;;11.26;39.94
75013;BME280;63567;49.956;20.130;2023-05-02T01:42:22;97049.59;;;11.25;39.90
75013;BME280;63567;49.956;20.130;2023-05-02T01:44:50;97060.94;;;11.25;39.76
75013;BME280;63567;49.956;20.130;2023-05-02T01:47:19;97058.53;;;11.24;39.35
75013;BME280;63567;49.956;20.130;2023-05-02T01:49:45;97050.97;;;11.21;39.93
75013;BME280;63567;49.956;20.130;2023-05-02T01:52:11;97055.09;;;11.23;40.10
75013;BME280;63567;49.956;20.130;2023-05-02T01:54:39;97050.34;;;11.19;40.36
75013;BME280;63567;49.956;20.130;2023-05-02T01:57:06;97062.56;;;11.20;40.57
75013;BME280;63567;49.956;20.130;2023-05-02T01:59:34;97062.09;;;11.16;40.55
75013;BME280;63567;49.956;20.130;2023-05-02T02:02:01;97068.59;;;11.14;40.46
75013;BME280;63567;49.956;20.130;2023-05-02T02:04:29;97066.69;;;11.07;40.01
75013;BME280;63567;49.956;20.130;2023-05-02T02:07:02;97074.78;;;11.06;40.58
75013;BME280;63567;49.956;20.130;2023-05-02T02:09:29;97068.72;;;11.05;40.44
75013;BME280;63567;49.956;20.130;2023-05-02T02:12:05;97067.28;;;11.03;40.32
75013;BME280;63567;49.956;20.130;2023-05-02T02:14:37;97069.69;;;10.98;40.23
75013;BME280;63567;49.956;20.130;2023-05-02T02:17:13;97063.97;;;10.94;40.34
75013;BME280;63567;49.956;20.130;2023-05-02T02:19:41;97064.34;;;10.91;40.30
75013;BME280;63567;49.956;20.130;2023-05-02T02:22:07;97059.66;;;10.86;40.12
75013;BME280;63567;49.956;20.130;2023-05-02T02:24:35;97065.91;;;10.85;39.73
75013;BME280;63567;49.956;20.130;2023-05-02T02:27:02;97075.63;;;10.85;39.78
75013;BME280;63567;49.956;20.130;2023-05-02T02:29:27;97074.22;;;10.82;40.31
75013;BME280;63567;49.956;20.130;2023-05-02T02:31:52;97079.84;;;10.79;40.32
75013;BME280;63567;49.956;20.130;2023-05-02T02:34:18;97081.66;;;10.79;40.20
75013;BME280;63567;49.956;20.130;2023-05-02T02:36:49;97080.78;;;10.72;41.00
75013;BME280;63567;49.956;20.130;2023-05-02T02:39:38;97082.59;;;10.71;41.07
75013;BME280;63567;49.956;20.130;2023-05-02T02:42:32;97085.59;;;10.68;41.51
75013;BME280;63567;49.956;20.130;2023-05-02T02:45:29;97079.47;;;10.61;41.81
75013;BME280;63567;49.956;20.130;2023-05-02T02:51:11;97083.19;;;10.52;42.87
75013;BME280;63567;49.956;20.130;2023-05-02T02:56:14;97078.06;;;10.43;42.83
75013;BME280;63567;49.956;20.130;2023-05-02T02:58:54;97083.34;;;10.43;43.03
75013;BME280;63567;49.956;20.130;2023-05-02T03:01:21;97076.59;;;10.41;43.18
75013;BME280;63567;49.956;20.130;2023-05-02T03:03:50;97090.06;;;10.31;43.56
75013;BME280;63567;49.956;20.130;2023-05-02T03:06:16;97084.31;;;10.27;43.56
75013;BME280;63567;49.956;20.130;2023-05-02T03:08:43;97082.69;;;10.26;43.23
75013;BME280;63567;49.956;20.130;2023-05-02T03:11:08;97087.97;;;10.26;43.72
75013;BME280;63567;49.956;20.130;2023-05-02T03:13:37;97081.53;;;10.29;43.44
75013;BME280;63567;49.956;20.130;2023-05-02T03:16:34;97080.88;;;10.27;43.84
75013;BME280;63567;49.956;20.130;2023-05-02T03:19:00;97075.38;;;10.22;43.44
75013;BME280;63567;49.956;20.130;2023-05-02T03:21:26;97072.09;;;10.20;43.96
75013;BME280;63567;49.956;20.130;2023-05-02T03:23:51;97080.00;;;10.20;43.81
75013;BME280;63567;49.956;20.130;2023-05-02T03:26:17;97071.63;;;10.16;43.40
75013;BME280;63567;49.956;20.130;2023-05-02T03:28:42;97072.44;;;10.17;43.11
75013;BME280;63567;49.956;20.130;2023-05-02T03:31:11;97077.06;;;10.15;42.36
75013;BME280;63567;49.956;20.130;2023-05-02T03:33:36;97082.56;;;10.13;43.23
75013;BME280;63567;49.956;20.130;2023-05-02T03:36:01;97074.81;;;10.12;43.11
75013;BME280;63567;49.956;20.130;2023-05-02T03:38:28;97073.38;;;10.09;43.56
75013;BME280;63567;49.956;20.130;2023-05-02T03:40:56;97074.19;;;10.10;43.55
75013;BME280;63567;49.956;20.130;2023-05-02T03:43:22;97083.28;;;10.07;43.89
75013;BME280;63567;49.956;20.130;2023-05-02T03:45:47;97078.00;;;10.07;43.97
75013;BME280;63567;49.956;20.130;2023-05-02T03:48:13;97082.47;;;10.06;45.00
75013;BME280;63567;49.956;20.130;2023-05-02T03:50:38;97087.09;;;10.04;45.22
75013;BME280;63567;49.956;20.130;2023-05-02T03:53:03;97086.47;;;10.02;45.27
75013;BME280;63567;49.956;20.130;2023-05-02T03:55:29;97087.28;;;10.03;45.58
75013;BME280;63567;49.956;20.130;2023-05-02T03:57:54;97080.56;;;10.00;45.98
75013;BME280;63567;49.956;20.130;2023-05-02T04:00:19;97086.81;;;9.99;45.58
75013;BME280;63567;49.956;20.130;2023-05-02T04:02:45;97079.69;;;9.93;45.41
75013;BME280;63567;49.956;20.130;2023-05-02T04:05:10;97090.81;;;9.95;45.64
75013;BME280;63567;49.956;20.130;2023-05-02T04:07:36;97090.00;;;9.95;45.77
75013;BME280;63567;49.956;20.130;2023-05-02T04:10:01;97093.44;;;9.95;45.65
75013;BME280;63567;49.956;20.130;2023-05-02T04:12:26;97095.25;;;9.95;45.90
75013;BME280;63567;49.956;20.130;2023-05-02T04:14:52;97096.06;;;9.95;45.64
75013;BME280;63567;49.956;20.130;2023-05-02T04:17:17;97091.00;;;9.94;45.77
75013;BME280;63567;49.956;20.130;2023-05-02T04:19:42;97091.19;;;9.92;45.83
75013;BME280;63567;49.956;20.130;2023-05-02T04:22:08;97091.00;;;9.94;45.40
75013;BME280;63567;49.956;20.130;2023-05-02T04:24:33;97088.19;;;9.95;45.82
75013;BME280;63567;49.956;20.130;2023-05-02T04:26:58;97095.47;;;9.93;45.40
75013;BME280;63567;49.956;20.130;2023-05-02T04:29:24;97104.97;;;9.94;45.79
75013;BME280;63567;49.956;20.130;2023-05-02T04:31:50;97096.06;;;9.95;45.75
75013;BME280;63567;49.956;20.130;2023-05-02T04:34:15;97095.72;;;9.98;45.85
75013;BME280;63567;49.956;20.130;2023-05-02T04:36:41;97096.34;;;10.00;46.02
75013;BME280;63567;49.956;20.130;2023-05-02T04:39:06;97093.56;;;10.02;45.55
75013;BME280;63567;49.956;20.130;2023-05-02T04:41:32;97092.72;;;10.01;45.24
75013;BME280;63567;49.956;20.130;2023-05-02T04:43:58;97099.25;;;10.05;45.04
75013;BME280;63567;49.956;20.130;2023-05-02T04:46:23;97097.25;;;10.07;45.17
75013;BME280;63567;49.956;20.130;2023-05-02T04:48:48;97094.88;;;10.13;45.39
75013;BME280;63567;49.956;20.130;2023-05-02T04:51:14;97100.59;;;10.16;45.11
75013;BME280;63567;49.956;20.130;2023-05-02T04:53:39;97094.34;;;10.17;45.03
75013;BME280;63567;49.956;20.130;2023-05-02T04:56:05;97106.56;;;10.25;45.06
75013;BME280;63567;49.956;20.130;2023-05-02T04:58:31;97091.22;;;10.28;45.34
75013;BME280;63567;49.956;20.130;2023-05-02T05:00:57;97110.13;;;10.32;44.77
75013;BME280;63567;49.956;20.130;2023-05-02T05:03:22;97116.88;;;10.35;44.79
75013;BME280;63567;49.956;20.130;2023-05-02T05:05:47;97115.50;;;10.39;44.92
75013;BME280;63567;49.956;20.130;2023-05-02T05:08:13;97118.72;;;10.41;45.13
75013;BME280;63567;49.956;20.130;2023-05-02T05:10:38;97112.47;;;10.42;45.40
75013;BME280;63567;49.956;20.130;2023-05-02T05:13:04;97105.91;;;10.53;45.22
75013;BME280;63567;49.956;20.130;2023-05-02T05:15:30;97106.00;;;10.59;45.41
75013;BME280;63567;49.956;20.130;2023-05-02T05:17:55;97109.88;;;10.63;45.48
75013;BME280;63567;49.956;20.130;2023-05-02T05:20:21;97114.75;;;10.66;45.54
75013;BME280;63567;49.956;20.130;2023-05-02T05:22:46;97114.84;;;10.73;45.64
75013;BME280;63567;49.956;20.130;2023-05-02T05:25:12;97111.28;;;10.81;45.55
75013;BME280;63567;49.956;20.130;2023-05-02T05:27:37;97108.06;;;10.85;45.32
75013;BME280;63567;49.956;20.130;2023-05-02T05:30:04;97109.97;;;10.92;45.49
75013;BME280;63567;49.956;20.130;2023-05-02T05:32:32;97114.50;;;10.98;45.39
75013;BME280;63567;49.956;20.130;2023-05-02T05:34:57;97121.44;;;11.05;45.80
75013;BME280;63567;49.956;20.130;2023-05-02T05:37:23;97110.09;;;11.05;45.74
75013;BME280;63567;49.956;20.130;2023-05-02T05:39:48;97121.19;;;11.22;46.02
75013;BME280;63567;49.956;20.130;2023-05-02T05:42:13;97118.78;;;11.27;45.97
75013;BME280;63567;49.956;20.130;2023-05-02T05:44:39;97124.09;;;11.34;45.94
75013;BME280;63567;49.956;20.130;2023-05-02T05:47:04;97125.63;;;11.43;46.29
75013;BME280;63567;49.956;20.130;2023-05-02T05:49:30;97124.47;;;11.52;45.99
75013;BME280;63567;49.956;20.130;2023-05-02T05:51:56;97122.69;;;11.59;46.23
75013;BME280;63567;49.956;20.130;2023-05-02T05:54:21;97132.69;;;11.70;46.18
75013;BME280;63567;49.956;20.130;2023-05-02T05:56:47;97125.88;;;11.83;46.22
75013;BME280;63567;49.956;20.130;2023-05-02T05:59:12;97127.38;;;11.92;46.20
75013;BME280;63567;49.956;20.130;2023-05-02T06:01:38;97136.41;;;12.04;46.30
75013;BME280;63567;49.956;20.130;2023-05-02T06:04:03;97135.84;;;12.16;46.30
75013;BME280;63567;49.956;20.130;2023-05-02T06:06:29;97134.47;;;12.26;46.30
75013;BME280;63567;49.956;20.130;2023-05-02T06:08:56;97133.91;;;12.38;46.26
75013;BME280;63567;49.956;20.130;2023-05-02T06:11:21;97137.44;;;12.51;45.70
75013;BME280;63567;49.956;20.130;2023-05-02T06:13:48;97134.84;;;12.65;45.56
75013;BME280;63567;49.956;20.130;2023-05-02T06:16:14;97141.16;;;12.77;45.43
75013;BME280;63567;49.956;20.130;2023-05-02T06:18:39;97145.88;;;12.88;44.58
75013;BME280;63567;49.956;20.130;2023-05-02T06:21:05;97147.94;;;13.00;43.70
75013;BME280;63567;49.956;20.130;2023-05-02T06:23:31;97140.81;;;13.07;43.72
75013;BME280;63567;49.956;20.130;2023-05-02T06:26:02;97141.66;;;13.21;43.31
75013;BME280;63567;49.956;20.130;2023-05-02T06:28:28;97142.91;;;13.31;43.01
75013;BME280;63567;49.956;20.130;2023-05-02T06:31:04;97147.19;;;13.39;42.78
75013;BME280;63567;49.956;20.130;2023-05-02T06:33:31;97150.25;;;13.49;42.79
75013;BME280;63567;49.956;20.130;2023-05-02T06:35:57;97153.50;;;13.58;42.93
75013;BME280;63567;49.956;20.130;2023-05-02T06:38:23;97148.59;;;13.68;42.74
75013;BME280;63567;49.956;20.130;2023-05-02T06:40:48;97156.34;;;13.76;42.70
75013;BME280;63567;49.956;20.130;2023-05-02T06:43:14;97154.53;;;13.84;42.91
75013;BME280;63567;49.956;20.130;2023-05-02T06:45:39;97151.66;;;13.85;42.74
75013;BME280;63567;49.956;20.130;2023-05-02T06:48:05;97162.44;;;13.97;42.77
75013;BME280;63567;49.956;20.130;2023-05-02T06:50:32;97161.81;;;14.08;42.78
75013;BME280;63567;49.956;20.130;2023-05-02T06:52:57;97164.88;;;14.12;42.72
75013;BME280;63567;49.956;20.130;2023-05-02T06:55:22;97173.00;;;14.17;42.56
75013;BME280;63567;49.956;20.130;2023-05-02T06:57:48;97179.50;;;14.28;42.28
75013;BME280;63567;49.956;20.130;2023-05-02T07:00:18;97178.84;;;14.32;42.53
75013;BME280;63567;49.956;20.130;2023-05-02T07:02:45;97184.75;;;14.41;42.61
75013;BME280;63567;49.956;20.130;2023-05-02T07:05:11;97184.72;;;14.48;42.80
75013;BME280;63567;49.956;20.130;2023-05-02T07:07:36;97184.91;;;14.53;43.27
75013;BME280;63567;49.956;20.130;2023-05-02T07:10:02;97183.09;;;14.60;42.78
75013;BME280;63567;49.956;20.130;2023-05-02T07:12:28;97192.25;;;14.64;42.03
75013;BME280;63567;49.956;20.130;2023-05-02T07:14:53;97186.13;;;14.64;41.02
75013;BME280;63567;49.956;20.130;2023-05-02T07:17:19;97185.72;;;14.67;41.01
75013;BME280;63567;49.956;20.130;2023-05-02T07:19:44;97187.16;;;14.63;40.68
75013;BME280;63567;49.956;20.130;2023-05-02T07:22:09;97179.41;;;14.61;41.15
75013;BME280;63567;49.956;20.130;2023-05-02T07:24:38;97177.59;;;14.62;41.28
75013;BME280;63567;49.956;20.130;2023-05-02T07:27:04;97190.41;;;14.65;41.78
75013;BME280;63567;49.956;20.130;2023-05-02T07:29:29;97184.69;;;14.68;41.79
75013;BME280;63567;49.956;20.130;2023-05-02T07:31:54;97193.84;;;14.72;42.00
75013;BME280;63567;49.956;20.130;2023-05-02T07:34:20;97182.81;;;14.75;42.42
75013;BME280;63567;49.956;20.130;2023-05-02T07:36:46;97188.31;;;14.80;42.88
75013;BME280;63567;49.956;20.130;2023-05-02T07:39:11;97186.06;;;14.84;42.77
75013;BME280;63567;49.956;20.130;2023-05-02T07:41:36;97191.72;;;14.87;42.71
75013;BME280;63567;49.956;20.130;2023-05-02T07:44:02;97193.38;;;14.88;42.78
75013;BME280;63567;49.956;20.130;2023-05-02T07:46:27;97191.31;;;14.90;43.24
75013;BME280;63567;49.956;20.130;2023-05-02T07:48:52;97203.53;;;14.91;43.23
75013;BME280;63567;49.956;20.130;2023-05-02T07:51:18;97193.75;;;14.92;43.54
75013;BME280;63567;49.956;20.130;2023-05-02T07:53:45;97195.59;;;14.91;43.55
75013;BME280;63567;49.956;20.130;2023-05-02T07:56:11;97193.53;;;14.93;43.79
75013;BME280;63567;49.956;20.130;2023-05-02T07:58:37;97199.44;;;14.95;44.02
75013;BME280;63567;49.956;20.130;2023-05-02T08:01:02;97207.59;;;14.94;43.78
75013;BME280;63567;49.956;20.130;2023-05-02T08:03:29;97194.34;;;14.94;44.41
75013;BME280;63567;49.956;20.130;2023-05-02T08:05:54;97197.00;;;14.94;44.58
75013;BME280;63567;49.956;20.130;2023-05-02T08:08:20;97198.44;;;14.96;44.89
75013;BME280;63567;49.956;20.130;2023-05-02T08:10:45;97197.84;;;14.94;44.84
75013;BME280;63567;49.956;20.130;2023-05-02T08:13:11;97201.09;;;14.96;45.20
75013;BME280;63567;49.956;20.130;2023-05-02T08:15:37;97204.34;;;14.98;45.11
75013;BME280;63567;49.956;20.130;2023-05-02T08:18:02;97212.69;;;15.02;45.05
75013;BME280;63567;49.956;20.130;2023-05-02T08:20:28;97209.00;;;15.03;45.57
75013;BME280;63567;49.956;20.130;2023-05-02T08:22:53;97207.78;;;15.06;45.70
75013;BME280;63567;49.956;20.130;2023-05-02T08:25:18;97206.53;;;15.08;46.02
75013;BME280;63567;49.956;20.130;2023-05-02T08:27:44;97214.66;;;15.13;46.80
75013;BME280;63567;49.956;20.130;2023-05-02T08:30:10;97217.66;;;15.24;47.16
75013;BME280;63567;49.956;20.130;2023-05-02T08:32:35;97215.56;;;15.32;47.28
75013;BME280;63567;49.956;20.130;2023-05-02T08:35:01;97213.88;;;15.45;47.86
75013;BME280;63567;49.956;20.130;2023-05-02T08:37:27;97215.22;;;15.54;47.68
75013;BME280;63567;49.956;20.130;2023-05-02T08:39:52;97209.22;;;15.65;47.60
75013;BME280;63567;49.956;20.130;2023-05-02T08:42:18;97210.84;;;15.73;48.08
75013;BME280;63567;49.956;20.130;2023-05-02T08:44:45;97212.19;;;15.82;47.84
75013;BME280;63567;49.956;20.130;2023-05-02T08:47:12;97208.59;;;15.95;47.27
75013;BME280;63567;49.956;20.130;2023-05-02T08:49:39;97205.22;;;16.06;47.53
75013;BME280;63567;49.956;20.130;2023-05-02T08:52:07;97204.94;;;16.14;47.55
75013;BME280;63567;49.956;20.130;2023-05-02T08:54:33;97208.13;;;16.23;47.51
75013;BME280;63567;49.956;20.130;2023-05-02T08:56:58;97212.94;;;16.33;47.65
75013;BME280;63567;49.956;20.130;2023-05-02T08:59:24;97207.72;;;16.45;48.28
75013;BME280;63567;49.956;20.130;2023-05-02T09:01:54;97201.84;;;16.54;47.86
75013;BME280;63567;49.956;20.130;2023-05-02T09:04:23;97195.44;;;16.62;47.85
75013;BME280;63567;49.956;20.130;2023-05-02T09:06:51;97202.47;;;16.75;47.65
75013;BME280;63567;49.956;20.130;2023-05-02T09:09:17;97204.25;;;16.81;47.46
75013;BME280;63567;49.956;20.130;2023-05-02T09:11:45;97197.22;;;16.87;47.63
75013;BME280;63567;49.956;20.130;2023-05-02T09:14:15;97195.44;;;16.99;47.41
75013;BME280;63567;49.956;20.130;2023-05-02T09:16:41;97196.16;;;17.06;47.94
75013;BME280;63567;49.956;20.130;2023-05-02T09:19:07;97189.81;;;17.19;48.19
75013;BME280;63567;49.956;20.130;2023-05-02T09:21:38;97192.66;;;17.36;47.66
75013;BME280;63567;49.956;20.130;2023-05-02T09:24:20;97199.66;;;17.60;47.16
75013;BME280;63567;49.956;20.130;2023-05-02T09:27:01;97188.84;;;17.85;47.41
75013;BME280;63567;49.956;20.130;2023-05-02T09:29:28;97195.34;;;18.13;47.30
75013;BME280;63567;49.956;20.130;2023-05-02T09:32:01;97204.16;;;18.37;46.19
75013;BME280;63567;49.956;20.130;2023-05-02T09:34:27;97196.28;;;18.71;46.23
75013;BME280;63567;49.956;20.130;2023-05-02T09:36:53;97205.41;;;18.99;44.96
75013;BME280;63567;49.956;20.130;2023-05-02T09:39:22;97203.94;;;19.20;43.29
75013;BME280;63567;49.956;20.130;2023-05-02T09:41:48;97201.78;;;19.34;43.16
75013;BME280;63567;49.956;20.130;2023-05-02T09:44:19;97205.84;;;19.53;43.03
75013;BME280;63567;49.956;20.130;2023-05-02T09:46:45;97205.31;;;19.68;41.95
75013;BME280;63567;49.956;20.130;2023-05-02T09:49:11;97205.75;;;19.77;41.67
75013;BME280;63567;49.956;20.130;2023-05-02T09:51:36;97199.28;;;19.89;41.52
75013;BME280;63567;49.956;20.130;2023-05-02T09:54:02;97202.69;;;20.02;41.74
75013;BME280;63567;49.956;20.130;2023-05-02T09:56:28;97202.16;;;20.22;42.30
75013;BME280;63567;49.956;20.130;2023-05-02T09:59:15;97205.25;;;20.52;42.13
75013;BME280;63567;49.956;20.130;2023-05-02T10:01:41;97200.38;;;20.88;42.21
75013;BME280;63567;49.956;20.130;2023-05-02T10:04:13;97195.63;;;21.23;41.69
75013;BME280;63567;49.956;20.130;2023-05-02T10:06:43;97192.91;;;21.72;41.10
75013;BME280;63567;49.956;20.130;2023-05-02T10:09:09;97195.13;;;22.18;41.08
75013;BME280;63567;49.956;20.130;2023-05-02T10:11:38;97199.97;;;22.63;40.47
75013;BME280;63567;49.956;20.130;2023-05-02T10:14:10;97192.09;;;23.09;40.09
75013;BME280;63567;49.956;20.130;2023-05-02T10:16:47;97187.59;;;23.46;38.66
75013;BME280;63567;49.956;20.130;2023-05-02T10:19:23;97194.06;;;23.65;37.43
75013;BME280;63567;49.956;20.130;2023-05-02T10:21:51;97188.44;;;23.87;36.94
75013;BME280;63567;49.956;20.130;2023-05-02T10:24:18;97194.88;;;24.07;36.03
75013;BME280;63567;49.956;20.130;2023-05-02T10:26:45;97195.13;;;24.15;34.96
75013;BME280;63567;49.956;20.130;2023-05-02T10:29:11;97196.19;;;24.30;34.50
75013;BME280;63567;49.956;20.130;2023-05-02T10:31:37;97197.50;;;24.43;34.08
75013;BME280;63567;49.956;20.130;2023-05-02T10:34:05;97196.16;;;24.50;33.81
75013;BME280;63567;49.956;20.130;2023-05-02T10:36:34;97199.13;;;24.54;33.74
75013;BME280;63567;49.956;20.130;2023-05-02T10:39:01;97192.41;;;24.51;32.95
75013;BME280;63567;49.956;20.130;2023-05-02T10:41:30;97194.81;;;24.53;32.19
75013;BME280;63567;49.956;20.130;2023-05-02T10:43:56;97183.78;;;24.49;32.59
75013;BME280;63567;49.956;20.130;2023-05-02T10:51:28;97185.56;;;24.74;32.83
75013;BME280;63567;49.956;20.130;2023-05-02T10:53:54;97181.50;;;24.82;32.60
75013;BME280;63567;49.956;20.130;2023-05-02T10:59:41;97185.56;;;24.79;32.04
75013;BME280;63567;49.956;20.130;2023-05-02T11:05:05;97188.63;;;24.57;34.04
75013;BME280;63567;49.956;20.130;2023-05-02T11:07:37;97185.13;;;24.42;35.57
75013;BME280;63567;49.956;20.130;2023-05-02T11:12:49;97190.31;;;24.07;35.31
75013;BME280;63567;49.956;20.130;2023-05-02T11:20:37;97171.75;;;23.49;35.21
75013;BME280;63567;49.956;20.130;2023-05-02T11:25:41;97175.19;;;23.14;36.35
75013;BME280;63567;49.956;20.130;2023-05-02T11:28:31;97171.59;;;22.98;34.71
75013;BME280;63567;49.956;20.130;2023-05-02T11:30:52;97178.78;;;22.72;34.72
75013;BME280;63567;49.956;20.130;2023-05-02T11:33:18;97179.78;;;22.55;35.36
75013;BME280;63567;49.956;20.130;2023-05-02T11:35:44;97185.09;;;22.45;35.49
75013;BME280;63567;49.956;20.130;2023-05-02T11:38:12;97184.50;;;22.33;34.77
75013;BME280;63567;49.956;20.130;2023-05-02T11:40:38;97181.25;;;22.26;35.44
75013;BME280;63567;49.956;20.130;2023-05-02T11:43:15;97183.13;;;22.25;35.96
75013;BME280;63567;49.956;20.130;2023-05-02T11:45:41;97193.53;;;22.22;35.69
75013;BME280;63567;49.956;20.130;2023-05-02T11:48:07;97196.44;;;22.15;35.50
75013;BME280;63567;49.956;20.130;2023-05-02T11:50:40;97188.63;;;22.08;35.29
75013;BME280;63567;49.956;20.130;2023-05-02T11:53:09;97192.59;;;22.01;36.00
75013;BME280;63567;49.956;20.130;2023-05-02T11:55:35;97202.41;;;21.85;36.06
75013;BME280;63567;49.956;20.130;2023-05-02T11:58:01;97208.91;;;21.62;36.17
75013;BME280;63567;49.956;20.130;2023-05-02T12:00:26;97213.72;;;21.32;38.05
75013;BME280;63567;49.956;20.130;2023-05-02T12:02:52;97191.31;;;21.17;40.36
75013;BME280;63567;49.956;20.130;2023-05-02T12:05:26;97168.66;;;21.02;41.60
75013;BME280;63567;49.956;20.130;2023-05-02T12:07:53;97165.00;;;20.86;41.63
75013;BME280;63567;49.956;20.130;2023-05-02T12:10:18;97163.44;;;20.68;42.57
75013;BME280;63567;49.956;20.130;2023-05-02T12:12:44;97162.97;;;20.55;43.27
75013;BME280;63567;49.956;20.130;2023-05-02T12:15:11;97165.28;;;20.46;44.06
75013;BME280;63567;49.956;20.130;2023-05-02T12:17:41;97171.94;;;20.43;44.38
75013;BME280;63567;49.956;20.130;2023-05-02T12:20:08;97170.59;;;20.41;44.66
75013;BME280;63567;49.956;20.130;2023-05-02T12:22:34;97167.63;;;20.42;44.46
75013;BME280;63567;49.956;20.130;2023-05-02T12:25:00;97155.38;;;20.46;44.57
75013;BME280;63567;49.956;20.130;2023-05-02T12:27:28;97156.91;;;20.59;44.54
75013;BME280;63567;49.956;20.130;2023-05-02T12:29:53;97160.00;;;20.73;45.33
75013;BME280;63567;49.956;20.130;2023-05-02T12:32:33;97165.28;;;20.90;44.60
75013;BME280;63567;49.956;20.130;2023-05-02T12:35:00;97168.66;;;21.02;44.35
75013;BME280;63567;49.956;20.130;2023-05-02T12:37:27;97170.88;;;21.10;43.33
75013;BME280;63567;49.956;20.130;2023-05-02T12:39:53;97177.59;;;21.13;42.61
75013;BME280;63567;49.956;20.130;2023-05-02T12:42:20;97183.75;;;21.13;42.55
75013;BME280;63567;49.956;20.130;2023-05-02T12:44:48;97201.66;;;21.08;41.79
75013;BME280;63567;49.956;20.130;2023-05-02T12:47:14;97204.63;;;20.84;41.31
75013;BME280;63567;49.956;20.130;2023-05-02T12:49:56;97219.56;;;20.58;42.07
75013;BME280;63567;49.956;20.130;2023-05-02T12:52:47;97223.28;;;20.40;42.50
75013;BME280;63567;49.956;20.130;2023-05-02T12:55:23;97225.50;;;20.09;42.39
75013;BME280;63567;49.956;20.130;2023-05-02T12:57:50;97231.53;;;19.83;42.17
75013;BME280;63567;49.956;20.130;2023-05-02T13:00:16;97233.50;;;19.59;42.55
75013;BME280;63567;49.956;20.130;2023-05-02T13:02:42;97233.69;;;19.40;43.60
75013;BME280;63567;49.956;20.130;2023-05-02T13:05:14;97250.97;;;19.21;44.45
75013;BME280;63567;49.956;20.130;2023-05-02T13:07:40;97258.09;;;19.03;43.99
75013;BME280;63567;49.956;20.130;2023-05-02T13:10:06;97245.97;;;18.84;43.63
75013;BME280;63567;49.956;20.130;2023-05-02T13:12:31;97232.84;;;18.71;44.05
75013;BME280;63567;49.956;20.130;2023-05-02T13:14:56;97223.00;;;18.59;44.63
75013;BME280;63567;49.956;20.130;2023-05-02T13:17:22;97228.69;;;18.51;45.37
75013;BME280;63567;49.956;20.130;2023-05-02T13:19:47;97237.88;;;18.43;45.21
75013;BME280;63567;49.956;20.130;2023-05-02T13:22:12;97232.09;;;18.35;44.75
75013;BME280;63567;49.956;20.130;2023-05-02T13:24:37;97227.44;;;18.30;44.09
75013;BME280;63567;49.956;20.130;2023-05-02T13:27:03;97224.78;;;18.30;43.70
75013;BME280;63567;49.956;20.130;2023-05-02T13:29:29;97228.72;;;18.27;44.36
75013;BME280;63567;49.956;20.130;2023-05-02T13:31:55;97233.25;;;18.27;44.43
75013;BME280;63567;49.956;20.130;2023-05-02T13:34:21;97223.88;;;18.24;44.61